createdAt,value
2023-07-18T00:00:39.842Z,20.42
2023-07-18T00:03:06.835Z,20.41
2023-07-18T00:05:34.666Z,20.40
2023-07-18T00:08:01.863Z,20.38
2023-07-18T00:10:28.697Z,20.36
2023-07-18T00:12:55.488Z,20.33
2023-07-18T00:15:23.215Z,20.33
2023-07-18T00:17:49.836Z,20.34
2023-07-18T00:20:19.238Z,20.34
2023-07-18T00:22:48.618Z,20.36
2023-07-18T00:25:17.163Z,20.38
2023-07-18T00:27:44.108Z,20.40
2023-07-18T00:30:13.970Z,20.40
2023-07-18T00:35:49.386Z,20.47
2023-07-18T00:38:16.774Z,20.45
2023-07-18T00:40:44.104Z,20.45
2023-07-18T00:43:15.927Z,20.42
2023-07-18T00:45:44.532Z,20.40
2023-07-18T00:48:12.593Z,20.36
2023-07-18T00:50:40.194Z,20.32
2023-07-18T00:53:07.586Z,20.28
2023-07-18T00:55:35.252Z,20.25
2023-07-18T00:58:02.797Z,20.21
2023-07-18T01:00:30.384Z,20.17
2023-07-18T01:02:58.258Z,20.13
2023-07-18T01:05:25.716Z,20.10
2023-07-18T01:07:53.041Z,20.04
2023-07-18T01:10:25.465Z,19.99
2023-07-18T01:13:01.101Z,19.92
2023-07-18T01:15:34.583Z,19.84
2023-07-18T01:18:08.169Z,19.74
2023-07-18T01:20:37.361Z,19.66
2023-07-18T01:23:05.511Z,19.58
2023-07-18T01:25:35.097Z,19.53
2023-07-18T01:28:02.600Z,19.50
2023-07-18T01:30:31.250Z,19.47
2023-07-18T01:32:58.975Z,19.44
2023-07-18T01:35:27.453Z,19.41
2023-07-18T01:37:55.719Z,19.38
2023-07-18T01:40:23.289Z,19.36
2023-07-18T01:42:54.433Z,19.35
2023-07-18T01:45:22.574Z,19.34
2023-07-18T01:47:50.582Z,19.33
2023-07-18T01:50:19.384Z,19.33
2023-07-18T01:52:50.411Z,19.31
2023-07-18T01:55:18.254Z,19.27
2023-07-18T01:57:47.340Z,19.25
2023-07-18T02:00:21.105Z,19.23
2023-07-18T02:02:50.505Z,19.20
2023-07-18T02:05:25.510Z,19.18
2023-07-18T02:07:53.671Z,19.17
2023-07-18T02:10:22.035Z,19.17
2023-07-18T02:12:50.438Z,19.17
2023-07-18T02:15:18.038Z,19.16
2023-07-18T02:17:46.029Z,19.16
2023-07-18T02:20:15.573Z,19.15
2023-07-18T02:22:44.251Z,19.14
2023-07-18T02:25:12.068Z,19.13
2023-07-18T02:27:40.907Z,19.11
2023-07-18T02:30:13.120Z,19.08
2023-07-18T02:32:42.935Z,19.05
2023-07-18T02:35:11.859Z,19.03
2023-07-18T02:37:39.280Z,19.02
2023-07-18T02:40:10.729Z,19.02
2023-07-18T02:42:38.986Z,19.03
2023-07-18T02:45:08.088Z,19.04
2023-07-18T02:47:35.587Z,19.05
2023-07-18T02:50:03.181Z,19.07
2023-07-18T02:52:31.791Z,19.07
2023-07-18T02:54:59.469Z,19.09
2023-07-18T02:57:27.538Z,19.10
2023-07-18T02:59:55.080Z,19.13
2023-07-18T03:04:48.719Z,19.23
2023-07-18T03:07:19.261Z,19.24
2023-07-18T03:09:47.118Z,19.28
2023-07-18T03:12:14.818Z,19.33
2023-07-18T03:14:43.036Z,19.38
2023-07-18T03:17:10.527Z,19.44
2023-07-18T03:19:38.341Z,19.48
2023-07-18T03:22:05.957Z,19.52
2023-07-18T03:24:35.562Z,19.53
2023-07-18T03:27:04.757Z,19.56
2023-07-18T03:29:32.377Z,19.59
2023-07-18T03:32:02.192Z,19.62
2023-07-18T03:34:30.157Z,19.67
2023-07-18T03:36:58.065Z,19.71
2023-07-18T03:39:25.526Z,19.74
2023-07-18T03:41:53.317Z,19.78
2023-07-18T03:44:20.701Z,19.82
2023-07-18T03:46:48.286Z,19.91
2023-07-18T03:49:15.757Z,20.01
2023-07-18T03:51:43.187Z,20.14
2023-07-18T03:54:10.778Z,20.26
2023-07-18T03:56:39.095Z,20.32
2023-07-18T03:59:06.422Z,20.32
2023-07-18T04:01:33.880Z,20.32
2023-07-18T04:04:01.359Z,20.31
2023-07-18T04:06:29.290Z,20.33
2023-07-18T04:08:56.610Z,20.39
2023-07-18T04:11:23.981Z,20.45
2023-07-18T04:13:51.429Z,20.50
2023-07-18T04:16:18.893Z,20.54
2023-07-18T04:18:46.357Z,20.60
2023-07-18T04:21:13.746Z,20.68
2023-07-18T04:23:41.092Z,20.70
2023-07-18T04:26:10.476Z,20.72
2023-07-18T04:28:38.362Z,20.77
2023-07-18T04:31:06.533Z,20.88
2023-07-18T04:33:37.811Z,21.16
2023-07-18T04:36:06.052Z,21.73
2023-07-18T04:38:33.691Z,22.53
2023-07-18T04:41:02.801Z,23.38
2023-07-18T04:43:30.617Z,24.28
2023-07-18T04:45:58.047Z,25.14
2023-07-18T04:48:25.426Z,25.89
2023-07-18T04:51:00.207Z,26.56
2023-07-18T04:53:28.628Z,27.14
2023-07-18T04:55:59.451Z,27.63
2023-07-18T04:58:27.159Z,27.90
2023-07-18T05:00:58.514Z,28.12
2023-07-18T05:03:26.998Z,28.38
2023-07-18T05:05:54.483Z,28.58
2023-07-18T05:08:22.375Z,28.77
2023-07-18T05:10:51.154Z,28.85
2023-07-18T05:13:18.809Z,28.55
2023-07-18T05:15:46.315Z,28.03
2023-07-18T05:18:13.794Z,27.50
2023-07-18T05:20:41.117Z,27.00
2023-07-18T05:23:08.776Z,26.52
2023-07-18T05:25:39.604Z,26.11
2023-07-18T05:28:08.116Z,25.72
2023-07-18T05:30:35.507Z,25.38
2023-07-18T05:33:02.850Z,25.12
2023-07-18T05:35:30.294Z,24.87
2023-07-18T05:37:57.792Z,24.63
2023-07-18T05:40:25.978Z,24.45
2023-07-18T05:42:53.359Z,24.34
2023-07-18T05:45:20.952Z,24.25
2023-07-18T05:47:48.490Z,24.16
2023-07-18T05:50:15.954Z,24.11
2023-07-18T05:52:43.382Z,24.12
2023-07-18T05:55:11.220Z,24.07
2023-07-18T05:57:40.403Z,23.96
2023-07-18T06:00:11.530Z,23.85
2023-07-18T06:02:42.616Z,23.71
2023-07-18T06:05:11.020Z,23.59
2023-07-18T06:07:38.852Z,23.51
2023-07-18T06:10:06.816Z,23.42
2023-07-18T06:12:34.329Z,23.36
2023-07-18T06:15:01.661Z,23.28
2023-07-18T06:17:29.543Z,23.22
2023-07-18T06:19:57.118Z,23.16
2023-07-18T06:22:24.536Z,23.07
2023-07-18T06:24:51.908Z,22.97
2023-07-18T06:27:19.178Z,22.91
2023-07-18T06:29:48.120Z,22.88
2023-07-18T06:32:15.462Z,22.86
2023-07-18T06:34:44.728Z,22.84
2023-07-18T06:37:12.168Z,22.86
2023-07-18T06:39:40.007Z,22.90
2023-07-18T06:42:10.119Z,22.90
2023-07-18T06:44:39.258Z,22.86
2023-07-18T06:47:07.671Z,22.84
2023-07-18T06:49:35.449Z,22.83
2023-07-18T06:52:02.912Z,22.84
2023-07-18T06:54:30.254Z,22.88
2023-07-18T06:56:57.612Z,22.93
2023-07-18T06:59:25.651Z,22.97
2023-07-18T07:01:53.492Z,23.03
2023-07-18T07:04:21.081Z,23.09
2023-07-18T07:06:48.664Z,23.16
2023-07-18T07:09:16.011Z,23.17
2023-07-18T07:11:44.465Z,23.17
2023-07-18T07:14:15.113Z,23.17
2023-07-18T07:16:43.038Z,23.17
2023-07-18T07:19:10.556Z,23.15
2023-07-18T07:21:37.928Z,23.12
2023-07-18T07:24:05.683Z,23.12
2023-07-18T07:26:33.040Z,23.12
2023-07-18T07:29:00.472Z,23.13
2023-07-18T07:31:27.852Z,23.17
2023-07-18T07:33:55.998Z,23.24
2023-07-18T07:36:23.398Z,23.26
2023-07-18T07:38:50.781Z,23.31
2023-07-18T07:41:18.358Z,23.37
2023-07-18T07:43:46.116Z,23.41
2023-07-18T07:46:13.444Z,23.43
2023-07-18T07:48:41.770Z,23.43
2023-07-18T07:51:09.304Z,23.44
2023-07-18T07:53:36.676Z,23.46
2023-07-18T07:56:04.252Z,23.50
2023-07-18T07:58:31.710Z,23.57
2023-07-18T08:00:59.409Z,23.63
2023-07-18T08:03:26.729Z,23.66
2023-07-18T08:05:54.267Z,23.69
2023-07-18T08:08:21.661Z,23.75
2023-07-18T08:10:49.081Z,23.81
2023-07-18T08:13:18.988Z,23.88
2023-07-18T08:15:46.339Z,23.97
2023-07-18T08:18:13.647Z,24.04
2023-07-18T08:20:40.960Z,24.15
2023-07-18T08:23:08.588Z,24.24
2023-07-18T08:25:36.168Z,24.27
2023-07-18T08:28:03.632Z,24.26
2023-07-18T08:30:30.921Z,24.32
2023-07-18T08:32:58.247Z,24.41
2023-07-18T08:35:26.324Z,24.47
2023-07-18T08:37:54.596Z,24.49
2023-07-18T08:40:21.982Z,24.51
2023-07-18T08:42:49.278Z,24.55
2023-07-18T08:45:16.720Z,24.61
2023-07-18T08:47:45.067Z,24.64
2023-07-18T08:50:12.735Z,24.66
2023-07-18T08:52:40.930Z,24.67
2023-07-18T08:55:09.296Z,24.68
2023-07-18T08:57:37.167Z,24.70
2023-07-18T09:00:06.087Z,24.77
2023-07-18T09:02:33.745Z,24.88
2023-07-18T09:05:01.970Z,24.99
2023-07-18T09:07:29.549Z,25.07
2023-07-18T09:09:59.036Z,25.18
2023-07-18T09:12:27.751Z,25.29
2023-07-18T09:14:58.530Z,25.39
2023-07-18T09:17:26.098Z,25.45
2023-07-18T09:19:54.022Z,25.44
2023-07-18T09:22:22.361Z,25.43
2023-07-18T09:24:49.911Z,25.40
2023-07-18T09:27:19.199Z,25.34
2023-07-18T09:29:47.681Z,25.27
2023-07-18T09:32:21.703Z,25.22
2023-07-18T09:34:56.305Z,25.24
2023-07-18T09:37:23.765Z,25.31
2023-07-18T09:39:51.432Z,25.35
2023-07-18T09:42:20.261Z,25.39
2023-07-18T09:44:51.955Z,25.44
2023-07-18T09:47:20.212Z,25.43
2023-07-18T09:49:47.574Z,25.34
2023-07-18T09:52:16.254Z,25.27
2023-07-18T09:54:44.714Z,25.31
2023-07-18T09:57:12.160Z,25.41
2023-07-18T09:59:40.598Z,25.44
2023-07-18T10:02:10.484Z,25.44
2023-07-18T10:04:38.074Z,25.52
2023-07-18T10:07:08.825Z,25.61
2023-07-18T10:09:36.377Z,25.74
2023-07-18T10:12:03.721Z,25.86
2023-07-18T10:14:32.021Z,26.02
2023-07-18T10:17:07.563Z,26.14
2023-07-18T10:19:51.839Z,26.01
2023-07-18T10:22:29.758Z,25.79
2023-07-18T10:25:02.122Z,25.61
2023-07-18T10:27:39.968Z,25.48
2023-07-18T10:30:09.245Z,25.32
2023-07-18T10:32:38.622Z,25.18
2023-07-18T10:35:10.847Z,25.06
2023-07-18T10:37:38.921Z,24.91
2023-07-18T10:40:06.990Z,24.78
2023-07-18T10:42:36.225Z,24.69
2023-07-18T10:45:05.631Z,24.63
2023-07-18T10:47:37.444Z,24.61
2023-07-18T10:50:05.586Z,24.63
2023-07-18T10:52:34.033Z,24.69
2023-07-18T10:55:01.634Z,24.74
2023-07-18T10:57:34.180Z,24.76
2023-07-18T11:00:02.471Z,24.74
2023-07-18T11:02:46.094Z,24.74
2023-07-18T11:05:14.430Z,24.72
2023-07-18T11:07:43.504Z,24.70
2023-07-18T11:10:11.449Z,24.69
2023-07-18T11:12:38.953Z,24.73
2023-07-18T11:15:07.564Z,24.78
2023-07-18T11:17:35.086Z,24.82
2023-07-18T11:20:04.265Z,24.85
2023-07-18T11:22:32.263Z,24.88
2023-07-18T11:24:59.830Z,24.89
2023-07-18T11:27:27.712Z,24.90
2023-07-18T11:30:05.911Z,24.93
2023-07-18T11:32:43.377Z,24.94
2023-07-18T11:35:12.430Z,24.93
2023-07-18T11:37:43.241Z,25.00
2023-07-18T11:40:11.432Z,25.10
2023-07-18T11:42:46.761Z,25.07
2023-07-18T11:45:21.206Z,25.01
2023-07-18T11:47:51.798Z,24.95
2023-07-18T11:50:20.141Z,24.91
2023-07-18T11:52:49.165Z,24.86
2023-07-18T11:55:17.444Z,24.80
2023-07-18T11:57:45.316Z,24.76
2023-07-18T12:00:13.711Z,24.75
2023-07-18T12:02:41.323Z,24.80
2023-07-18T12:05:09.417Z,24.83
2023-07-18T12:07:36.831Z,24.88
2023-07-18T12:10:08.287Z,24.95
2023-07-18T12:12:35.815Z,25.04
2023-07-18T12:15:03.691Z,25.05
2023-07-18T12:17:31.074Z,25.04
2023-07-18T12:19:58.459Z,25.03
2023-07-18T12:22:25.792Z,24.98
2023-07-18T12:24:53.425Z,24.92
2023-07-18T12:27:21.469Z,24.87
2023-07-18T12:29:48.834Z,24.84
2023-07-18T12:32:19.065Z,24.82
2023-07-18T12:34:46.808Z,24.81
2023-07-18T12:37:14.259Z,24.84
2023-07-18T12:39:42.039Z,24.85
2023-07-18T12:42:09.571Z,24.83
2023-07-18T12:44:45.019Z,24.83
2023-07-18T12:47:13.418Z,24.85
2023-07-18T12:52:11.471Z,24.87
2023-07-18T12:54:38.813Z,24.86
2023-07-18T12:57:06.593Z,24.87
2023-07-18T12:59:33.972Z,24.88
2023-07-18T13:02:01.414Z,24.91
2023-07-18T13:04:28.848Z,24.93
2023-07-18T13:06:56.211Z,24.91
2023-07-18T13:09:23.843Z,24.90
2023-07-18T13:11:51.648Z,24.90
2023-07-18T13:14:21.212Z,24.91
2023-07-18T13:16:48.924Z,24.94
2023-07-18T13:19:16.785Z,24.96
2023-07-18T13:21:45.269Z,24.96
2023-07-18T13:24:12.853Z,24.98
2023-07-18T13:26:40.324Z,24.97
2023-07-18T13:29:08.017Z,24.96
2023-07-18T13:31:35.816Z,24.96
2023-07-18T13:34:04.100Z,24.96
2023-07-18T13:36:32.143Z,24.95
2023-07-18T13:38:59.521Z,24.97
2023-07-18T13:41:27.360Z,25.02
2023-07-18T13:43:54.803Z,25.04
2023-07-18T13:46:22.284Z,25.07
2023-07-18T13:48:50.282Z,25.12
2023-07-18T13:51:17.863Z,25.17
2023-07-18T13:53:45.927Z,25.21
2023-07-18T13:56:13.446Z,25.22
2023-07-18T13:58:40.816Z,25.24
2023-07-18T14:01:08.678Z,25.25
2023-07-18T14:03:37.132Z,25.28
2023-07-18T14:06:05.166Z,25.30
2023-07-18T14:08:33.235Z,25.33
2023-07-18T14:11:01.061Z,25.35
2023-07-18T14:13:28.488Z,25.36
2023-07-18T14:15:55.922Z,25.39
2023-07-18T14:18:23.554Z,25.43
2023-07-18T14:20:50.899Z,25.47
2023-07-18T14:23:18.719Z,25.52
2023-07-18T14:25:48.104Z,25.53
2023-07-18T14:31:03.931Z,25.65
2023-07-18T14:33:31.532Z,25.70
2023-07-18T14:35:59.309Z,25.73
2023-07-18T14:38:27.038Z,25.75
2023-07-18T14:40:55.329Z,25.72
2023-07-18T14:43:30.601Z,25.72
2023-07-18T14:45:58.272Z,25.76
2023-07-18T14:48:25.812Z,25.82
2023-07-18T14:50:53.244Z,25.89
2023-07-18T14:53:20.611Z,25.89
2023-07-18T14:55:48.054Z,25.85
2023-07-18T14:58:16.057Z,25.85
2023-07-18T15:00:43.417Z,25.87
2023-07-18T15:03:10.959Z,25.84
2023-07-18T15:05:38.418Z,25.84
2023-07-18T15:08:05.896Z,25.86
2023-07-18T15:10:33.237Z,25.82
2023-07-18T15:13:00.610Z,25.77
2023-07-18T15:15:28.186Z,25.75
2023-07-18T15:17:55.524Z,25.77
2023-07-18T15:22:17.528Z,25.84
2023-07-18T15:24:45.206Z,25.78
2023-07-18T15:27:14.612Z,25.77
2023-07-18T15:29:44.390Z,25.78
2023-07-18T15:32:12.047Z,25.75
2023-07-18T15:34:39.851Z,25.71
2023-07-18T15:37:07.273Z,25.69
2023-07-18T15:39:34.849Z,25.67
2023-07-18T15:42:02.923Z,25.64
2023-07-18T15:44:30.275Z,25.64
2023-07-18T15:47:01.012Z,25.67
2023-07-18T15:49:28.441Z,25.67
2023-07-18T15:51:55.956Z,25.64
2023-07-18T15:54:23.316Z,25.61
2023-07-18T15:56:50.931Z,25.59
2023-07-18T15:59:18.353Z,25.60
2023-07-18T16:01:45.949Z,25.63
2023-07-18T16:04:14.457Z,25.60
2023-07-18T16:06:41.869Z,25.55
2023-07-18T16:09:09.881Z,25.51
2023-07-18T16:11:37.708Z,25.49
2023-07-18T16:14:05.099Z,25.45
2023-07-18T16:16:32.558Z,25.46
2023-07-18T16:19:05.341Z,25.49
2023-07-18T16:21:34.145Z,25.51
2023-07-18T16:24:01.955Z,25.49
2023-07-18T16:26:33.786Z,25.47
2023-07-18T16:29:02.504Z,25.46
2023-07-18T16:31:29.934Z,25.43
2023-07-18T16:34:12.339Z,25.40
2023-07-18T16:36:39.778Z,25.37
2023-07-18T16:39:07.166Z,25.38
2023-07-18T16:41:34.661Z,25.37
2023-07-18T16:44:02.370Z,25.36
2023-07-18T16:46:29.853Z,25.31
2023-07-18T16:48:57.334Z,25.30
2023-07-18T16:51:24.833Z,25.27
2023-07-18T16:53:52.187Z,25.25
2023-07-18T16:56:19.764Z,25.21
2023-07-18T16:58:47.476Z,25.10
2023-07-18T17:01:15.423Z,25.00
2023-07-18T17:03:43.960Z,24.93
2023-07-18T17:06:11.417Z,24.86
2023-07-18T17:08:39.056Z,24.81
2023-07-18T17:11:06.540Z,24.77
2023-07-18T17:13:34.040Z,24.70
2023-07-18T17:16:01.856Z,24.62
2023-07-18T17:18:29.271Z,24.55
2023-07-18T17:20:56.615Z,24.47
2023-07-18T17:23:24.729Z,24.39
2023-07-18T17:25:52.064Z,24.30
2023-07-18T17:28:19.390Z,24.22
2023-07-18T17:30:46.774Z,24.14
2023-07-18T17:33:14.819Z,24.07
2023-07-18T17:35:42.301Z,24.02
2023-07-18T17:40:51.394Z,23.89
2023-07-18T17:43:18.816Z,23.83
2023-07-18T17:45:46.159Z,23.76
2023-07-18T17:48:13.533Z,23.65
2023-07-18T17:50:40.952Z,23.56
2023-07-18T17:53:08.438Z,23.46
2023-07-18T17:55:35.832Z,23.38
2023-07-18T17:58:03.619Z,23.30
2023-07-18T18:00:31.139Z,23.22
2023-07-18T18:02:58.553Z,23.14
2023-07-18T18:08:36.167Z,22.88
2023-07-18T18:11:03.800Z,22.77
2023-07-18T18:13:31.191Z,22.64
2023-07-18T18:16:08.147Z,22.57
2023-07-18T18:18:37.243Z,22.46
2023-07-18T18:21:05.156Z,22.37
2023-07-18T18:23:39.381Z,22.29
2023-07-18T18:26:11.914Z,22.19
2023-07-18T18:28:39.314Z,22.08
2023-07-18T18:31:07.161Z,21.97
2023-07-18T18:33:34.572Z,21.86
2023-07-18T18:36:03.050Z,21.73
2023-07-18T18:38:32.058Z,21.60
2023-07-18T18:40:59.509Z,21.45
2023-07-18T18:43:26.892Z,21.30
2023-07-18T18:45:54.820Z,21.19
2023-07-18T18:48:23.274Z,21.11
2023-07-18T18:50:50.856Z,21.02
2023-07-18T18:53:18.686Z,20.93
2023-07-18T18:55:46.220Z,20.85
2023-07-18T18:58:14.565Z,20.76
2023-07-18T19:00:42.513Z,20.69
2023-07-18T19:03:10.559Z,20.63
2023-07-18T19:05:38.135Z,20.56
2023-07-18T19:08:05.969Z,20.49
2023-07-18T19:10:33.431Z,20.40
2023-07-18T19:13:01.857Z,20.32
2023-07-18T19:15:29.174Z,20.25
2023-07-18T19:17:56.688Z,20.19
2023-07-18T19:20:26.130Z,20.12
2023-07-18T19:22:54.260Z,20.05
2023-07-18T19:25:23.228Z,19.98
2023-07-18T19:27:51.192Z,19.92
2023-07-18T19:30:18.633Z,19.85
2023-07-18T19:32:46.454Z,19.77
2023-07-18T19:35:15.052Z,19.71
2023-07-18T19:37:43.635Z,19.65
2023-07-18T19:40:15.648Z,19.57
2023-07-18T19:42:43.245Z,19.49
2023-07-18T19:45:11.369Z,19.39
2023-07-18T19:47:38.801Z,19.32
2023-07-18T19:50:09.540Z,19.25
2023-07-18T19:52:40.086Z,19.20
2023-07-18T19:55:09.642Z,19.16
2023-07-18T19:57:37.324Z,19.13
2023-07-18T20:00:07.364Z,19.11
2023-07-18T20:02:41.783Z,19.10
2023-07-18T20:05:10.350Z,19.08
2023-07-18T20:07:40.058Z,19.06
2023-07-18T20:10:08.118Z,19.02
2023-07-18T20:12:35.518Z,18.97
2023-07-18T20:15:03.161Z,18.92
2023-07-18T20:17:30.639Z,18.86
2023-07-18T20:19:58.129Z,18.80
2023-07-18T20:22:25.452Z,18.71
2023-07-18T20:24:52.926Z,18.63
2023-07-18T20:27:20.275Z,18.56
2023-07-18T20:29:47.697Z,18.51
2023-07-18T20:32:15.452Z,18.47
2023-07-18T20:34:44.668Z,18.43
2023-07-18T20:37:12.024Z,18.42
2023-07-18T20:39:39.986Z,18.42
2023-07-18T20:42:07.611Z,18.46
2023-07-18T20:44:34.987Z,18.51
2023-07-18T20:47:02.728Z,18.55
2023-07-18T20:49:30.199Z,18.56
2023-07-18T20:51:57.496Z,18.60
2023-07-18T20:54:24.837Z,18.62
2023-07-18T20:56:52.512Z,18.66
2023-07-18T20:59:20.021Z,18.69
2023-07-18T21:01:47.382Z,18.72
2023-07-18T21:04:14.872Z,18.73
2023-07-18T21:06:42.309Z,18.75
2023-07-18T21:09:09.657Z,18.76
2023-07-18T21:11:37.300Z,18.78
2023-07-18T21:14:04.632Z,18.80
2023-07-18T21:16:32.009Z,18.80
2023-07-18T21:18:59.799Z,18.80
2023-07-18T21:21:27.144Z,18.79
2023-07-18T21:23:55.634Z,18.76
2023-07-18T21:26:26.058Z,18.73
2023-07-18T21:29:03.938Z,18.70
2023-07-18T21:31:33.575Z,18.68
2023-07-18T21:34:01.222Z,18.67
2023-07-18T21:36:28.998Z,18.65
2023-07-18T21:38:56.415Z,18.63
2023-07-18T21:41:24.224Z,18.58
2023-07-18T21:43:51.665Z,18.53
2023-07-18T21:46:19.105Z,18.49
2023-07-18T21:48:46.588Z,18.46
2023-07-18T21:51:13.947Z,18.44
2023-07-18T21:53:41.328Z,18.44
2023-07-18T21:56:08.686Z,18.46
2023-07-18T21:58:36.193Z,18.47
2023-07-18T22:01:04.722Z,18.49
2023-07-18T22:03:34.169Z,18.52
2023-07-18T22:06:01.640Z,18.57
2023-07-18T22:08:29.111Z,18.62
2023-07-18T22:10:56.462Z,18.66
2023-07-18T22:13:23.938Z,18.71
2023-07-18T22:15:51.374Z,18.74
2023-07-18T22:18:26.907Z,18.76
2023-07-18T22:20:55.187Z,18.74
2023-07-18T22:23:22.648Z,18.73
2023-07-18T22:26:03.830Z,18.71
2023-07-18T22:28:37.603Z,18.70
2023-07-18T22:31:04.970Z,18.70
2023-07-18T22:33:32.356Z,18.71
2023-07-18T22:35:59.716Z,18.70
2023-07-18T22:38:27.178Z,18.69
2023-07-18T22:40:54.553Z,18.70
2023-07-18T22:43:22.206Z,18.72
2023-07-18T22:45:49.640Z,18.76
2023-07-18T22:48:17.167Z,18.78
2023-07-18T22:50:44.589Z,18.81
2023-07-18T22:53:11.891Z,18.84
2023-07-18T22:55:39.208Z,18.88
2023-07-18T22:58:06.544Z,18.91
2023-07-18T23:00:33.890Z,18.95
2023-07-18T23:03:01.803Z,18.99
2023-07-18T23:05:29.210Z,19.02
2023-07-18T23:07:56.804Z,19.06
2023-07-18T23:10:24.172Z,19.09
2023-07-18T23:12:51.693Z,19.10
2023-07-18T23:15:19.538Z,19.10
2023-07-18T23:17:46.884Z,19.11
2023-07-18T23:20:14.236Z,19.12
2023-07-18T23:22:42.143Z,19.14
2023-07-18T23:25:09.761Z,19.16
2023-07-18T23:27:37.745Z,19.16
2023-07-18T23:30:05.661Z,19.15
2023-07-18T23:35:50.589Z,19.21
2023-07-18T23:38:18.161Z,19.19
2023-07-18T23:40:46.702Z,19.17
2023-07-18T23:43:14.640Z,19.11
2023-07-18T23:45:42.200Z,19.05
2023-07-18T23:48:09.791Z,19.00
2023-07-18T23:50:37.468Z,18.92
2023-07-18T23:53:05.038Z,18.84
2023-07-18T23:55:32.602Z,18.78
2023-07-18T23:58:00.274Z,18.72
